Muskegon, Michigan
Current Conditions -  °F | °C
As of 5:55 AM on Monday 20 Oct 2014 (Local Time) from KMKG Reporting Station
Scattered Clouds Scattered Clouds  
Wind Chill: 53°   Ceiling: Unl
Heat Index: 53°   Visibility: 10mi
Dew Point: 47°   Wind: 8mph
Humidity: 80%   Direction: 210°SSW
Pressure: 29.79"   Gusts: NA
Location:  43.23°N, 86.24°W
Report Text: KMKG 200955Z 21007KT 10SM FEW045 SCT110 12/08 A2979 RMK AO2 SLP090 FIRST AUGMENTED OBS OF THE DAY T01170083 $
Loading
Personal Weather Stations






























Interactive Weather Map
Tropical Storm Tracking
New forecast layout! Learn more

10-Day Weather Forecast

Advertisements
Track Severe Weather on mobile